Oakfield, Tennessee
Current Conditions -  °F | °C
As of 5:53 PM on Wednesday 26 Nov 2014 (Local Time) from KMKL Reporting Station
Clear Clear  
Wind Chill: 37°   Ceiling: Unl
Heat Index: 44°   Visibility: 10mi
Dew Point: 33°   Wind: 14mph
Humidity: 65%   Direction: 280°W
Pressure: 30.07"   Gusts: 21mph
Location:  35.72°N, 88.8°W
Report Text: KMKL 262353Z 28012G18KT 10SM CLR 07/01 A3007 RMK AO2 SLP187 60001 T00670006 10089 20067 53027
Loading
Personal Weather Stations






























Interactive Weather Map New forecast layout! Learn more

10-Day Weather Forecast

Advertisements
Track Severe Weather on mobile